Chatham, Illinois
Current Conditions -  °F | °C
As of 8:52 AM on Thursday 23 Oct 2014 (Local Time) from KSPI Reporting Station
Clear Clear  
Wind Chill: 45°   Ceiling: Unl
Heat Index: 49°   Visibility: 10mi
Dew Point: 42°   Wind: 9mph
Humidity: 77%   Direction: 180°S
Pressure: 30.22"   Gusts: NA
Location:  39.68°N, 89.7°W
Report Text: KSPI 231352Z 18008KT 10SM CLR 09/06 A3022 RMK AO2 SLP235 T00940056
Loading
Personal Weather Stations






























Interactive Weather Map
Tropical Storm Tracking
New forecast layout! Learn more

10-Day Weather Forecast

Advertisements
Track Severe Weather on mobile